createdAt,value
2022-10-26T00:04:59.349Z,2.40
2022-10-26T00:10:04.303Z,2.40
2022-10-26T00:15:08.665Z,2.47
2022-10-26T00:20:14.211Z,2.20
2022-10-26T00:25:17.774Z,1.93
2022-10-26T00:30:21.154Z,2.03
2022-10-26T00:35:44.439Z,2.57
2022-10-26T00:40:49.005Z,3.00
2022-10-26T00:45:54.946Z,2.57
2022-10-26T00:51:02.322Z,3.03
2022-10-26T00:56:06.784Z,2.70
2022-10-26T01:01:10.551Z,2.60
2022-10-26T01:06:16.532Z,2.80
2022-10-26T01:11:20.853Z,3.13
2022-10-26T01:16:42.734Z,2.20
2022-10-26T01:21:56.018Z,2.30
2022-10-26T01:27:23.407Z,2.57
2022-10-26T01:32:34.360Z,2.60
2022-10-26T01:37:43.055Z,2.27
2022-10-26T01:42:52.520Z,2.23
2022-10-26T01:47:59.278Z,2.00
2022-10-26T01:53:02.828Z,2.30
2022-10-26T01:58:12.550Z,1.83
2022-10-26T02:03:25.287Z,1.67
2022-10-26T02:08:42.463Z,2.00
2022-10-26T02:13:52.490Z,1.90
2022-10-26T02:19:03.846Z,2.17
2022-10-26T02:24:10.509Z,1.80
2022-10-26T02:29:17.742Z,2.10
2022-10-26T02:34:27.240Z,2.20
2022-10-26T02:39:34.585Z,2.13
2022-10-26T02:44:43.966Z,2.10
2022-10-26T02:49:49.345Z,2.20
2022-10-26T02:54:59.229Z,2.57
2022-10-26T03:00:04.276Z,2.10
2022-10-26T03:05:13.913Z,2.10
2022-10-26T03:10:17.634Z,2.27
2022-10-26T03:15:21.704Z,2.23
2022-10-26T03:20:26.650Z,1.90
2022-10-26T03:25:30.218Z,1.97
2022-10-26T03:30:33.891Z,2.20
2022-10-26T03:35:38.834Z,2.37
2022-10-26T03:40:43.107Z,2.37
2022-10-26T03:45:47.175Z,2.17
2022-10-26T03:50:52.111Z,2.27
2022-10-26T03:55:55.625Z,2.13
2022-10-26T04:00:59.087Z,2.07
2022-10-26T04:06:04.996Z,2.43
2022-10-26T04:11:08.589Z,1.90
2022-10-26T04:16:12.086Z,1.90
2022-10-26T04:21:17.165Z,2.10
2022-10-26T04:26:20.696Z,2.20
2022-10-26T04:31:24.311Z,2.07
2022-10-26T04:36:29.240Z,2.17
2022-10-26T04:41:32.964Z,2.00
2022-10-26T04:46:36.497Z,2.00
2022-10-26T04:51:41.468Z,2.23
2022-10-26T05:01:48.652Z,1.83
2022-10-26T05:06:55.549Z,2.33
2022-10-26T05:11:58.997Z,2.40
2022-10-26T05:17:02.627Z,2.17
2022-10-26T05:22:07.683Z,2.17
2022-10-26T05:27:11.237Z,2.20
2022-10-26T05:32:14.772Z,2.40
2022-10-26T05:37:19.757Z,2.47
2022-10-26T05:42:23.298Z,2.00
2022-10-26T05:47:26.768Z,1.97
2022-10-26T05:52:31.819Z,2.03
2022-10-26T05:57:36.060Z,3.10
2022-10-26T06:02:49.715Z,2.27
2022-10-26T06:07:55.321Z,1.90
2022-10-26T06:12:59.245Z,1.90
2022-10-26T06:18:11.248Z,1.70
2022-10-26T06:23:31.634Z,1.70
2022-10-26T06:28:46.103Z,2.30
2022-10-26T06:33:53.875Z,2.30
2022-10-26T06:39:03.552Z,2.30
2022-10-26T06:44:08.220Z,2.20
2022-10-26T06:49:20.376Z,2.30
2022-10-26T06:54:31.417Z,1.97
2022-10-26T06:59:42.295Z,2.00
2022-10-26T07:04:46.606Z,1.90
2022-10-26T07:09:51.661Z,2.10
2022-10-26T07:14:55.181Z,2.30
2022-10-26T07:19:58.694Z,1.90
2022-10-26T07:25:05.184Z,2.50
2022-10-26T07:30:09.992Z,2.10
2022-10-26T07:35:13.751Z,2.00
2022-10-26T07:40:19.110Z,2.87
2022-10-26T07:45:22.633Z,2.77
2022-10-26T07:50:26.786Z,2.30
2022-10-26T07:55:31.780Z,1.87
2022-10-26T08:00:35.369Z,4.50
2022-10-26T08:05:38.837Z,2.97
2022-10-26T08:10:46.088Z,2.47
2022-10-26T08:15:49.671Z,3.67
2022-10-26T08:20:53.303Z,2.50
2022-10-26T08:26:01.650Z,2.40
2022-10-26T08:31:05.497Z,1.83
2022-10-26T08:36:09.428Z,2.70
2022-10-26T08:41:16.477Z,2.13
2022-10-26T08:46:23.349Z,1.70
2022-10-26T08:51:35.720Z,2.10
2022-10-26T08:56:47.179Z,2.30
2022-10-26T09:01:53.682Z,2.50
2022-10-26T09:07:04.581Z,2.70
2022-10-26T09:12:29.577Z,3.83
2022-10-26T09:17:56.262Z,4.17
2022-10-26T09:23:07.569Z,2.60
2022-10-26T09:28:17.762Z,3.00
2022-10-26T09:33:26.767Z,2.63
2022-10-26T09:38:32.896Z,2.67
2022-10-26T09:48:55.096Z,2.90
2022-10-26T09:54:01.315Z,2.73
2022-10-26T09:59:08.933Z,2.40
2022-10-26T10:04:20.390Z,2.50
2022-10-26T10:09:25.269Z,2.70
2022-10-26T10:14:35.979Z,2.70
2022-10-26T10:19:43.045Z,2.93
2022-10-26T10:24:56.743Z,1.87
2022-10-26T10:30:22.724Z,1.40
2022-10-26T10:35:31.523Z,1.47
2022-10-26T10:40:35.971Z,1.70
2022-10-26T10:45:42.088Z,1.70
2022-10-26T10:50:55.143Z,1.50
2022-10-26T10:56:11.564Z,1.80
2022-10-26T11:01:21.005Z,2.10
2022-10-26T11:06:29.122Z,1.90
2022-10-26T11:11:41.695Z,2.20
2022-10-26T11:17:01.834Z,2.20
2022-10-26T11:22:15.043Z,1.87
2022-10-26T11:27:24.442Z,2.10
2022-10-26T11:32:36.926Z,3.27
2022-10-26T11:37:47.570Z,3.50
2022-10-26T11:42:58.085Z,6.23
2022-10-26T11:48:13.668Z,3.10
2022-10-26T11:53:24.099Z,4.70
2022-10-26T11:58:49.401Z,3.77
2022-10-26T12:03:56.117Z,3.10
2022-10-26T12:09:04.947Z,2.93
2022-10-26T12:14:19.457Z,2.80
2022-10-26T12:19:30.274Z,3.00
2022-10-26T12:24:35.662Z,3.00
2022-10-26T12:29:41.895Z,3.80
2022-10-26T12:35:05.247Z,2.23
2022-10-26T12:40:42.653Z,2.20
2022-10-26T12:45:47.606Z,2.37
2022-10-26T12:50:52.856Z,2.10
2022-10-26T12:56:06.031Z,2.17
2022-10-26T13:01:27.743Z,2.30
2022-10-26T13:06:47.162Z,2.00
2022-10-26T13:11:54.143Z,1.83
2022-10-26T13:17:18.404Z,2.50
2022-10-26T13:22:24.745Z,2.20
2022-10-26T13:27:46.530Z,3.00
2022-10-26T13:32:56.328Z,1.80
2022-10-26T13:38:11.276Z,3.33
2022-10-26T13:43:21.821Z,2.50
2022-10-26T13:48:33.140Z,2.03
2022-10-26T13:53:42.979Z,2.50
2022-10-26T13:58:51.502Z,2.37
2022-10-26T14:03:55.136Z,2.90
2022-10-26T14:09:10.818Z,2.97
2022-10-26T14:14:34.657Z,2.80
2022-10-26T14:20:12.603Z,2.40
2022-10-26T14:25:35.837Z,2.30
2022-10-26T14:30:48.828Z,2.30
2022-10-26T14:36:28.490Z,2.30
2022-10-26T14:41:53.425Z,2.60
2022-10-26T14:47:22.009Z,2.03
2022-10-26T14:52:47.460Z,2.10
2022-10-26T14:58:36.548Z,1.90
2022-10-26T15:10:10.569Z,2.40
2022-10-26T15:33:23.852Z,2.30
2022-10-26T15:38:31.908Z,2.60
2022-10-26T15:43:37.357Z,1.93
2022-10-26T15:48:41.789Z,2.00
2022-10-26T15:53:45.910Z,2.03
2022-10-26T15:58:51.939Z,2.00
2022-10-26T16:03:56.941Z,2.00
2022-10-26T16:09:03.440Z,1.57
2022-10-26T16:14:10.923Z,1.70
2022-10-26T16:19:31.617Z,1.47
2022-10-26T16:24:37.449Z,1.73
2022-10-26T16:29:45.548Z,1.50
2022-10-26T16:34:54.395Z,1.70
2022-10-26T16:39:58.333Z,1.70
2022-10-26T16:45:04.333Z,1.30
2022-10-26T16:50:08.917Z,1.40
2022-10-26T16:55:12.557Z,1.50
2022-10-26T17:00:18.979Z,1.40
2022-10-26T17:05:23.112Z,4.00
2022-10-26T17:10:29.557Z,3.03
2022-10-26T17:15:38.286Z,1.77
2022-10-26T17:20:53.956Z,1.70
2022-10-26T17:26:05.528Z,1.67
2022-10-26T17:31:13.906Z,1.60
2022-10-26T17:36:21.479Z,1.80
2022-10-26T17:41:27.346Z,1.63
2022-10-26T17:46:41.973Z,1.57
2022-10-26T17:51:50.159Z,1.93
2022-10-26T17:56:55.309Z,1.50
2022-10-26T18:02:02.388Z,1.80
2022-10-26T18:07:07.890Z,1.97
2022-10-26T18:12:29.764Z,1.87
2022-10-26T18:17:58.345Z,1.70
2022-10-26T18:23:06.734Z,1.83
2022-10-26T18:33:21.863Z,2.10
2022-10-26T18:38:30.179Z,2.17
2022-10-26T18:43:35.014Z,2.50
2022-10-26T18:48:52.342Z,2.40
2022-10-26T18:54:02.937Z,2.53
2022-10-26T18:59:09.334Z,2.90
2022-10-26T19:04:21.517Z,3.60
2022-10-26T19:09:30.354Z,2.80
2022-10-26T19:14:37.142Z,2.30
2022-10-26T19:19:43.616Z,2.60
2022-10-26T19:24:49.278Z,2.10
2022-10-26T19:29:54.821Z,2.80
2022-10-26T19:35:01.357Z,2.40
2022-10-26T19:40:14.731Z,2.00
2022-10-26T19:45:19.688Z,2.60
2022-10-26T19:50:27.301Z,2.93
2022-10-26T19:55:37.425Z,2.47
2022-10-26T20:00:43.199Z,2.30
2022-10-26T20:05:49.907Z,1.90
2022-10-26T20:10:58.968Z,2.80
2022-10-26T20:16:14.039Z,2.43
2022-10-26T20:21:20.421Z,2.33
2022-10-26T20:26:28.298Z,2.40
2022-10-26T20:31:33.778Z,2.03
2022-10-26T20:36:47.089Z,2.37
2022-10-26T20:41:55.230Z,2.53
2022-10-26T20:47:00.547Z,4.97
2022-10-26T20:52:20.791Z,5.13
2022-10-26T20:57:36.782Z,4.17
2022-10-26T21:02:53.167Z,4.57
2022-10-26T21:07:59.319Z,4.00
2022-10-26T21:13:02.980Z,4.27
2022-10-26T21:18:06.627Z,3.80
2022-10-26T21:23:11.917Z,4.10
2022-10-26T21:28:15.571Z,3.50
2022-10-26T21:33:22.556Z,3.60
2022-10-26T21:38:30.755Z,4.03
2022-10-26T21:43:34.445Z,4.43
2022-10-26T21:48:38.434Z,4.53
2022-10-26T21:53:43.962Z,3.80
2022-10-26T21:58:48.309Z,4.40
2022-10-26T22:03:51.935Z,4.33
2022-10-26T22:08:57.085Z,3.97
2022-10-26T22:14:01.082Z,3.90
2022-10-26T22:19:06.746Z,3.90
2022-10-26T22:24:12.654Z,3.80
2022-10-26T22:29:16.159Z,3.60
2022-10-26T22:34:19.881Z,3.10
2022-10-26T22:39:25.854Z,3.43
2022-10-26T22:44:29.326Z,3.43
2022-10-26T22:49:32.913Z,4.17
2022-10-26T22:54:37.967Z,3.80
2022-10-26T22:59:41.581Z,3.63
2022-10-26T23:04:45.032Z,3.53
2022-10-26T23:09:49.975Z,4.10
2022-10-26T23:14:53.553Z,3.50
2022-10-26T23:19:57.081Z,3.60
2022-10-26T23:25:02.095Z,3.20
2022-10-26T23:30:06.142Z,3.30
2022-10-26T23:35:09.911Z,3.70
2022-10-26T23:40:15.295Z,3.50
2022-10-26T23:45:18.839Z,3.17
2022-10-26T23:50:22.436Z,3.60
2022-10-26T23:55:27.867Z,3.03
